Time;durP1;ratioP1;P1;durP2;ratioP2;P2;SDS_P1;SDS_P2;PMS_P1;PMS_P2;Temp;Humidity;BMP_temperature;BMP_pressure;BME280_temperature;BME280_humidity;BME280_pressure;Samples;Min_cycle;Max_cycle;Signal;HPM_P1;HPM_P2
2023/10/01 00:02:21;;;;;;;11.05;5.45;;;15.40;99.90;;;;;;5032402;28;20042;-81
2023/10/01 00:04:46;;;;;;;8.75;6.85;;;15.40;99.90;;;;;;5032427;28;20387;-82
2023/10/01 00:07:12;;;;;;;8.18;6.28;;;15.40;99.90;;;;;;5032975;28;20046;-78
2023/10/01 00:09:38;;;;;;;10.15;7.50;;;15.40;99.90;;;;;;5032389;28;20464;-82
2023/10/01 00:12:04;;;;;;;13.70;6.70;;;15.30;99.90;;;;;;5031216;28;20084;-82
2023/10/01 00:14:30;;;;;;;9.07;6.30;;;15.30;99.90;;;;;;5033447;28;20060;-83
2023/10/01 00:16:56;;;;;;;12.55;6.78;;;15.20;99.90;;;;;;5036095;28;20050;-82
2023/10/01 00:19:21;;;;;;;8.70;5.72;;;15.20;99.90;;;;;;5036678;28;20052;-82
2023/10/01 00:21:47;;;;;;;7.00;6.18;;;15.20;99.90;;;;;;5036322;28;20394;-82
2023/10/01 00:24:13;;;;;;;8.38;6.32;;;15.20;99.90;;;;;;5036150;28;20049;-81
2023/10/01 00:26:39;;;;;;;10.88;6.85;;;15.20;99.90;;;;;;5036262;28;20045;-82
2023/10/01 00:29:04;;;;;;;11.45;7.40;;;15.20;99.90;;;;;;5036844;28;20455;-79
2023/10/01 00:31:30;;;;;;;11.57;7.22;;;15.10;99.90;;;;;;5036011;28;20505;-80
2023/10/01 00:33:56;;;;;;;7.30;5.53;;;15.10;99.90;;;;;;5036104;28;20057;-82
2023/10/01 00:36:23;;;;;;;10.38;6.80;;;15.10;99.90;;;;;;5019242;28;20057;-83
2023/10/01 00:38:49;;;;;;;12.00;6.82;;;15.00;99.90;;;;;;5035862;28;20049;-80
2023/10/01 00:41:15;;;;;;;10.98;8.60;;;15.00;99.90;;;;;;5035893;28;20057;-81
2023/10/01 00:43:41;;;;;;;7.43;6.35;;;15.00;99.90;;;;;;5036046;28;20050;-82
2023/10/01 00:46:08;;;;;;;13.63;8.15;;;15.00;99.90;;;;;;5036520;28;20053;-79
2023/10/01 00:48:36;;;;;;;11.15;7.78;;;15.00;99.90;;;;;;5035898;28;20045;-81
2023/10/01 00:51:04;;;;;;;11.55;7.70;;;15.00;99.90;;;;;;5036322;28;20037;-82
2023/10/01 00:53:30;;;;;;;10.98;7.20;;;15.00;99.90;;;;;;5035635;28;20103;-81
2023/10/01 00:55:59;;;;;;;8.95;8.05;;;15.00;99.90;;;;;;5035374;28;20565;-82
2023/10/01 00:58:25;;;;;;;14.20;9.10;;;15.00;99.90;;;;;;5035387;28;20045;-82
2023/10/01 01:00:52;;;;;;;7.97;6.97;;;15.00;99.90;;;;;;5035948;28;20056;-80
2023/10/01 01:03:19;;;;;;;13.55;9.48;;;15.00;99.90;;;;;;5034310;28;20053;-79
2023/10/01 01:05:57;;;;;;;13.48;8.93;;;15.00;99.90;;;;;;5034436;28;20132;-82
2023/10/01 01:08:33;;;;;;;12.95;8.13;;;15.00;99.90;;;;;;5034641;28;20128;-78
2023/10/01 01:11:01;;;;;;;12.73;8.45;;;15.00;99.90;;;;;;5035606;28;20063;-82
2023/10/01 01:13:30;;;;;;;10.93;8.32;;;15.00;99.90;;;;;;5035768;28;20089;-82
2023/10/01 01:16:00;;;;;;;12.93;8.35;;;15.00;99.90;;;;;;5035620;28;20045;-81
2023/10/01 01:18:27;;;;;;;9.20;7.88;;;15.00;99.90;;;;;;5035266;28;20076;-82
2023/10/01 01:20:58;;;;;;;10.45;8.18;;;15.00;99.90;;;;;;5035055;28;20096;-81
2023/10/01 01:23:24;;;;;;;14.10;8.98;;;15.00;99.90;;;;;;5034020;28;20049;-81
2023/10/01 01:25:52;;;;;;;9.10;7.35;;;15.00;99.90;;;;;;5034816;28;20052;-83
2023/10/01 01:28:27;;;;;;;12.98;9.35;;;14.90;99.90;;;;;;5034817;28;20452;-81
2023/10/01 01:30:55;;;;;;;14.52;9.25;;;14.90;99.90;;;;;;5035298;28;20371;-82
2023/10/01 01:33:31;;;;;;;13.13;10.43;;;14.90;99.90;;;;;;5035252;28;20077;-84
2023/10/01 01:35:58;;;;;;;16.73;9.80;;;14.80;99.90;;;;;;5035475;28;20132;-80
2023/10/01 01:38:24;;;;;;;12.48;8.80;;;14.70;99.90;;;;;;5035359;28;20055;-81
2023/10/01 01:40:52;;;;;;;13.63;9.35;;;14.70;99.90;;;;;;5035156;28;20499;-82
2023/10/01 01:43:22;;;;;;;10.80;8.27;;;14.70;99.90;;;;;;5034554;28;20441;-81
2023/10/01 01:46:00;;;;;;;14.43;10.07;;;14.70;99.90;;;;;;5033697;28;20120;-82
2023/10/01 01:48:30;;;;;;;14.23;9.10;;;14.60;99.90;;;;;;5035162;28;20099;-81
2023/10/01 01:51:03;;;;;;;11.70;8.77;;;14.60;99.90;;;;;;5034891;28;20110;-82
2023/10/01 01:53:36;;;;;;;18.67;10.75;;;14.60;99.90;;;;;;5034932;28;20060;-80
2023/10/01 01:56:04;;;;;;;22.50;11.20;;;14.60;99.90;;;;;;5035095;28;20049;-81
2023/10/01 01:58:32;;;;;;;18.13;9.73;;;14.60;99.90;;;;;;5034576;28;20045;-81
2023/10/01 02:01:08;;;;;;;17.33;9.70;;;14.60;99.90;;;;;;5034523;28;20482;-82
2023/10/01 02:03:38;;;;;;;15.07;10.13;;;14.70;99.90;;;;;;5034846;28;20045;-82
2023/10/01 02:06:07;;;;;;;15.63;10.07;;;14.70;99.90;;;;;;5035011;28;20045;-83
2023/10/01 02:08:49;;;;;;;14.25;9.35;;;14.70;99.90;;;;;;5033455;28;20076;-81
2023/10/01 02:11:19;;;;;;;14.95;10.55;;;14.70;99.90;;;;;;5034340;28;20546;-81
2023/10/01 02:13:51;;;;;;;16.48;10.18;;;14.70;99.90;;;;;;5034834;28;20063;-82
2023/10/01 02:18:56;;;;;;;16.48;10.70;;;14.70;99.90;;;;;;5034324;28;20053;-83
2023/10/01 02:21:44;;;;;;;16.90;10.40;;;14.70;99.90;;;;;;5034156;28;20038;-84
2023/10/01 02:24:22;;;;;;;13.98;9.82;;;14.80;99.90;;;;;;5034583;28;20049;-82
2023/10/01 02:26:53;;;;;;;14.38;9.35;;;14.80;99.90;;;;;;5034153;28;20053;-82
2023/10/01 02:29:24;;;;;;;17.17;11.57;;;14.80;99.90;;;;;;5033999;28;20067;-81
2023/10/01 02:31:56;;;;;;;15.52;11.75;;;14.80;99.90;;;;;;5034281;28;20080;-82
2023/10/01 02:34:29;;;;;;;19.45;10.95;;;14.80;99.90;;;;;;5034017;28;20038;-85
2023/10/01 02:36:55;;;;;;;13.88;9.88;;;14.80;99.90;;;;;;5033740;28;20144;-82
2023/10/01 02:39:27;;;;;;;14.40;11.38;;;14.80;99.90;;;;;;5034305;28;20046;-83
2023/10/01 02:44:32;;;;;;;17.35;11.02;;;14.80;99.90;;;;;;5034152;28;20084;-83
2023/10/01 02:47:09;;;;;;;17.10;11.75;;;14.90;99.90;;;;;;5034209;28;20037;-82
2023/10/01 02:49:49;;;;;;;17.90;9.38;;;14.90;99.90;;;;;;5034242;28;20175;-80
2023/10/01 02:52:19;;;;;;;12.98;10.52;;;14.90;99.90;;;;;;5033650;28;20120;-81
2023/10/01 02:54:47;;;;;;;13.20;9.25;;;14.90;99.90;;;;;;5033876;28;20125;-81
2023/10/01 02:57:23;;;;;;;16.52;11.02;;;14.90;99.90;;;;;;5033417;28;20049;-82
2023/10/01 03:02:41;;;;;;;16.95;10.88;;;14.90;99.90;;;;;;5032351;28;20496;-83
2023/10/01 03:05:18;;;;;;;13.18;9.88;;;14.90;99.90;;;;;;5033241;28;20053;-83
2023/10/01 03:07:50;;;;;;;13.73;10.60;;;14.90;99.90;;;;;;5033577;28;20045;-83
2023/10/01 03:10:25;;;;;;;16.08;11.45;;;14.90;99.90;;;;;;5033286;28;20057;-83
2023/10/01 03:12:55;;;;;;;17.50;11.63;;;14.80;99.90;;;;;;5033252;28;20053;-81
2023/10/01 03:15:24;;;;;;;16.60;11.48;;;14.80;99.90;;;;;;5033141;28;20080;-83
2023/10/01 03:18:08;;;;;;;14.48;11.48;;;14.80;99.90;;;;;;5033010;28;20045;-83
2023/10/01 03:23:11;;;;;;;14.18;11.77;;;14.80;99.90;;;;;;5032891;28;20041;-83
2023/10/01 03:25:42;;;;;;;15.05;11.45;;;14.80;99.90;;;;;;5031903;28;20072;-82
2023/10/01 03:28:26;;;;;;;15.07;11.25;;;14.80;99.90;;;;;;5032867;28;20522;-81
2023/10/01 03:31:09;;;;;;;17.33;12.00;;;14.80;99.90;;;;;;5032719;28;20046;-74
2023/10/01 03:33:37;;;;;;;16.15;11.63;;;14.80;99.90;;;;;;5033026;28;20038;-83
2023/10/01 03:36:11;;;;;;;16.10;10.50;;;14.80;99.90;;;;;;5032651;28;20041;-81
2023/10/01 03:38:44;;;;;;;14.45;10.75;;;14.80;99.90;;;;;;5032838;28;20060;-82
2023/10/01 03:41:20;;;;;;;16.35;11.98;;;14.80;99.90;;;;;;5031335;28;20065;-82
2023/10/01 03:43:50;;;;;;;17.58;11.20;;;14.80;99.90;;;;;;5032338;28;20057;-83
2023/10/01 03:51:28;;;;;;;17.63;10.57;;;14.90;99.90;;;;;;5031175;28;20482;-81
2023/10/01 03:53:59;;;;;;;14.73;11.40;;;14.90;99.90;;;;;;5032326;28;20045;-81
2023/10/01 03:56:32;;;;;;;16.25;11.02;;;14.90;99.90;;;;;;5032299;28;20046;-79
2023/10/01 03:58:58;;;;;;;17.85;10.27;;;14.90;99.90;;;;;;5016241;28;20123;-85
2023/10/01 04:01:26;;;;;;;14.05;10.05;;;14.90;99.90;;;;;;5014995;28;20115;-82
2023/10/01 04:03:52;;;;;;;15.05;11.45;;;14.90;99.90;;;;;;5031442;28;20123;-83
2023/10/01 04:06:21;;;;;;;14.50;10.18;;;14.90;99.90;;;;;;5032475;28;20491;-82
2023/10/01 04:08:48;;;;;;;15.80;10.82;;;14.90;99.90;;;;;;5032089;28;20041;-82
2023/10/01 04:11:15;;;;;;;17.08;10.75;;;14.90;99.90;;;;;;5032342;28;20071;-83
2023/10/01 04:13:41;;;;;;;17.73;11.07;;;15.00;99.90;;;;;;5032460;28;20120;-82
2023/10/01 04:16:14;;;;;;;12.95;10.95;;;14.90;99.90;;;;;;5031811;28;20430;-81
2023/10/01 04:18:42;;;;;;;11.98;9.20;;;14.90;99.90;;;;;;5031864;28;20578;-83
2023/10/01 04:23:40;;;;;;;15.45;10.00;;;14.90;99.90;;;;;;5031876;28;20041;-79
2023/10/01 04:26:08;;;;;;;13.45;10.57;;;14.90;99.90;;;;;;5032101;28;20072;-85
2023/10/01 04:28:44;;;;;;;12.38;9.10;;;15.00;99.90;;;;;;5032121;28;20119;-84
2023/10/01 04:31:15;;;;;;;15.40;10.00;;;15.00;99.90;;;;;;5031736;28;20478;-80
2023/10/01 04:33:47;;;;;;;13.63;9.82;;;15.00;99.90;;;;;;5031994;28;20084;-80
2023/10/01 04:36:16;;;;;;;12.63;9.17;;;15.00;99.90;;;;;;5030955;28;20049;-82
2023/10/01 04:38:45;;;;;;;11.13;9.50;;;15.00;99.90;;;;;;5030894;28;20382;-82
2023/10/01 04:41:18;;;;;;;18.40;9.60;;;15.00;99.90;;;;;;5031480;28;20049;-84
2023/10/01 04:44:00;;;;;;;14.93;10.07;;;15.00;99.90;;;;;;5014699;28;20045;-84
2023/10/01 04:46:27;;;;;;;15.25;9.82;;;15.00;99.90;;;;;;5030889;28;20059;-83
2023/10/01 04:48:54;;;;;;;13.75;10.40;;;15.00;99.90;;;;;;5030813;28;20085;-83
2023/10/01 04:51:22;;;;;;;12.80;10.05;;;15.00;99.90;;;;;;5031354;28;20046;-84
2023/10/01 04:53:51;;;;;;;13.35;8.93;;;15.00;99.90;;;;;;5031595;28;20466;-85
2023/10/01 04:56:20;;;;;;;12.90;9.60;;;15.00;99.90;;;;;;5031488;28;20088;-84
2023/10/01 04:58:54;;;;;;;13.27;9.77;;;15.00;99.90;;;;;;5031083;28;20057;-81
2023/10/01 05:01:28;;;;;;;20.42;9.50;;;15.00;99.90;;;;;;5032879;28;20053;-83
2023/10/01 05:03:56;;;;;;;13.50;8.25;;;14.40;99.90;;;;;;5035362;28;20075;-83
2023/10/01 05:06:22;;;;;;;12.15;9.82;;;15.00;99.90;;;;;;5017793;28;20056;-81
2023/10/01 05:08:51;;;;;;;15.52;10.85;;;15.00;99.90;;;;;;5034183;28;20053;-82
2023/10/01 05:11:21;;;;;;;12.77;9.70;;;15.10;99.90;;;;;;5035440;28;20053;-85
2023/10/01 05:13:51;;;;;;;13.38;9.48;;;15.10;99.90;;;;;;5034968;28;20123;-81
2023/10/01 05:16:26;;;;;;;14.85;10.57;;;15.10;99.90;;;;;;5035193;28;20125;-81
2023/10/01 05:19:09;;;;;;;14.50;9.50;;;15.20;99.90;;;;;;5035254;28;20042;-81
2023/10/01 05:21:47;;;;;;;14.80;9.65;;;15.10;99.90;;;;;;5033937;28;20049;-82
2023/10/01 05:24:36;;;;;;;11.43;8.68;;;15.00;99.90;;;;;;5034106;28;20049;-83
2023/10/01 05:27:15;;;;;;;13.40;9.32;;;15.00;99.90;;;;;;5034891;28;20045;-83
2023/10/01 05:29:42;;;;;;;17.40;10.80;;;15.00;99.90;;;;;;5034289;28;20076;-82
2023/10/01 05:32:10;;;;;;;14.88;9.52;;;15.00;99.90;;;;;;5034903;28;20045;-82
2023/10/01 05:34:38;;;;;;;14.75;10.30;;;15.00;99.90;;;;;;5033385;28;20088;-83
2023/10/01 05:37:12;;;;;;;13.77;10.32;;;15.00;99.90;;;;;;5034478;28;20053;-80
2023/10/01 05:42:28;;;;;;;15.50;9.88;;;14.90;99.90;;;;;;5034666;28;20056;-81
2023/10/01 05:44:56;;;;;;;11.77;10.18;;;14.80;99.90;;;;;;5033174;28;20054;-82
2023/10/01 05:48:10;;;;;;;14.15;9.63;;;14.80;99.90;;;;;;5034767;28;20056;-80
2023/10/01 05:50:18;;;;;;;14.98;10.48;;;14.90;99.90;;;;;;5031344;28;20505;-83
2023/10/01 05:52:45;;;;;;;17.23;10.27;;;14.90;99.90;;;;;;5034270;28;20049;-82
2023/10/01 05:55:12;;;;;;;16.33;11.10;;;14.90;99.90;;;;;;5034654;28;20085;-82
2023/10/01 05:57:38;;;;;;;14.60;9.27;;;14.90;99.90;;;;;;5034358;28;20184;-84
2023/10/01 06:00:16;;;;;;;14.57;10.35;;;14.80;99.90;;;;;;5032816;28;20124;-83
2023/10/01 06:02:47;;;;;;;19.85;11.10;;;14.70;99.90;;;;;;5033624;28;20127;-82
2023/10/01 06:05:33;;;;;;;15.55;9.85;;;14.70;99.90;;;;;;5034859;28;20041;-84
2023/10/01 06:08:14;;;;;;;11.90;9.75;;;14.70;99.90;;;;;;5033727;28;20491;-82
2023/10/01 06:11:09;;;;;;;16.50;11.05;;;14.70;99.90;;;;;;5034742;28;20049;-82
2023/10/01 06:13:37;;;;;;;15.18;9.20;;;14.80;99.90;;;;;;5033675;28;20080;-82
2023/10/01 06:16:16;;;;;;;14.55;10.32;;;14.80;99.90;;;;;;5034119;28;20505;-81
2023/10/01 06:18:58;;;;;;;15.13;10.27;;;14.70;99.90;;;;;;5034698;28;20057;-82
2023/10/01 06:21:26;;;;;;;15.25;9.98;;;14.70;99.90;;;;;;5034709;28;20133;-83
2023/10/01 06:23:58;;;;;;;13.05;9.45;;;14.80;99.90;;;;;;5035085;28;20045;-82
2023/10/01 06:26:37;;;;;;;12.68;9.48;;;14.70;99.90;;;;;;5033831;28;20505;-80
2023/10/01 06:29:07;;;;;;;14.18;10.52;;;14.80;99.90;;;;;;5034444;28;20099;-83
2023/10/01 06:31:48;;;;;;;13.68;10.20;;;14.80;99.90;;;;;;5033903;28;20109;-83
2023/10/01 06:34:15;;;;;;;16.25;9.88;;;14.90;99.90;;;;;;5034233;28;20049;-83
2023/10/01 06:36:42;;;;;;;19.23;11.95;;;14.90;99.90;;;;;;5034360;28;20116;-82
2023/10/01 06:39:20;;;;;;;15.57;10.68;;;14.90;99.90;;;;;;5034572;28;20132;-82
2023/10/01 06:41:52;;;;;;;20.02;10.48;;;14.90;99.90;;;;;;5034287;28;20490;-82
2023/10/01 06:44:22;;;;;;;20.30;10.82;;;14.90;99.90;;;;;;5033869;28;20466;-82
2023/10/01 06:46:51;;;;;;;16.30;9.77;;;14.90;99.90;;;;;;5034533;28;20057;-83
2023/10/01 06:49:18;;;;;;;18.17;11.25;;;15.00;99.90;;;;;;5046352;28;20049;-78
2023/10/01 06:51:44;;;;;;;15.95;10.02;;;15.00;99.90;;;;;;5054886;28;20431;-84
2023/10/01 06:54:14;;;;;;;13.23;9.55;;;15.10;99.90;;;;;;5033550;28;20042;-82
2023/10/01 06:56:47;;;;;;;18.48;10.63;;;15.20;99.90;;;;;;5032528;28;20418;-82
2023/10/01 06:59:14;;;;;;;11.43;9.23;;;15.20;99.90;;;;;;5033615;28;20462;-83
2023/10/01 07:01:47;;;;;;;14.18;9.65;;;15.20;99.90;;;;;;5033585;28;20056;-82
2023/10/01 07:04:23;;;;;;;;;;;15.20;99.90;;;;;;5034478;28;20146;-82
2023/10/01 07:06:53;;;;;;;19.60;9.18;;;15.30;99.90;;;;;;5032816;28;19921;-82
2023/10/01 07:09:27;;;;;;;13.40;9.18;;;15.30;99.90;;;;;;5033266;28;20080;-82
2023/10/01 07:11:56;;;;;;;15.40;9.32;;;15.30;99.90;;;;;;5032982;28;20516;-82
2023/10/01 07:14:38;;;;;;;17.25;9.98;;;15.40;99.90;;;;;;5032349;28;20431;-82
2023/10/01 07:17:08;;;;;;;19.25;11.27;;;15.40;99.90;;;;;;5032909;28;20049;-83
2023/10/01 07:19:35;;;;;;;14.60;9.48;;;15.40;99.90;;;;;;5033098;28;20057;-83
2023/10/01 07:22:06;;;;;;;16.95;9.55;;;15.40;99.90;;;;;;5032120;28;20045;-82
2023/10/01 07:24:33;;;;;;;12.88;9.15;;;15.40;99.90;;;;;;5033541;28;20081;-83
2023/10/01 07:27:03;;;;;;;12.88;8.70;;;15.50;99.90;;;;;;5033436;28;20050;-83
2023/10/01 07:29:33;;;;;;;20.27;10.35;;;15.50;99.90;;;;;;5032921;28;20061;-83
2023/10/01 07:32:07;;;;;;;14.35;9.52;;;15.60;99.90;;;;;;5031536;28;20041;-83
2023/10/01 07:34:39;;;;;;;17.45;10.18;;;15.60;99.90;;;;;;5032743;28;20041;-84
2023/10/01 07:37:05;;;;;;;15.70;10.25;;;15.60;99.90;;;;;;5032339;28;20371;-83
2023/10/01 07:39:34;;;;;;;12.75;8.95;;;15.70;99.90;;;;;;5032565;28;20045;-82
2023/10/01 07:42:04;;;;;;;16.42;10.02;;;15.70;99.90;;;;;;5032680;28;20057;-83
2023/10/01 07:44:31;;;;;;;16.10;9.02;;;15.70;99.90;;;;;;5033111;28;20103;-83
2023/10/01 07:46:56;;;;;;;15.40;10.07;;;15.80;99.90;;;;;;5032324;28;20484;-84
2023/10/01 07:49:22;;;;;;;16.42;8.95;;;15.80;99.90;;;;;;5032576;28;20132;-79
2023/10/01 07:51:51;;;;;;;18.33;9.52;;;15.80;99.90;;;;;;5031604;28;20160;-83
2023/10/01 07:54:22;;;;;;;15.15;9.23;;;15.90;99.90;;;;;;5032482;28;20102;-83
2023/10/01 07:56:56;;;;;;;13.30;8.50;;;16.00;99.90;;;;;;5032094;28;20072;-81
2023/10/01 07:59:34;;;;;;;13.73;9.00;;;16.00;99.90;;;;;;5031529;28;20049;-82
2023/10/01 08:04:58;;;;;;;12.82;8.63;;;16.00;99.90;;;;;;5032832;28;20130;-83
2023/10/01 08:07:31;;;;;;;15.70;8.60;;;16.00;99.90;;;;;;5032572;28;20049;-81
2023/10/01 08:09:59;;;;;;;13.98;9.32;;;16.00;99.90;;;;;;5032472;28;20049;-83
2023/10/01 08:13:04;;;;;;;15.18;9.35;;;16.00;99.90;;;;;;5032209;28;20131;-80
2023/10/01 08:15:37;;;;;;;10.63;7.78;;;16.00;99.90;;;;;;5029021;28;20363;-84
2023/10/01 08:20:58;;;;;;;12.27;8.60;;;16.00;99.90;;;;;;5032154;28;20053;-81
2023/10/01 08:23:26;;;;;;;11.95;8.48;;;16.00;99.90;;;;;;5032327;28;20053;-83
2023/10/01 08:25:54;;;;;;;13.35;8.43;;;16.00;99.90;;;;;;5032296;28;20045;-83
2023/10/01 08:31:01;;;;;;;13.88;8.65;;;16.00;99.90;;;;;;5032089;28;20398;-79
2023/10/01 08:33:32;;;;;;;13.68;9.55;;;16.00;99.90;;;;;;5032717;28;20129;-83
2023/10/01 08:36:12;;;;;;;15.45;8.35;;;16.20;99.90;;;;;;5033038;28;20489;-81
2023/10/01 08:38:39;;;;;;;16.05;8.52;;;16.30;99.90;;;;;;5036276;28;20059;-79
2023/10/01 08:41:06;;;;;;;14.50;9.02;;;16.40;99.90;;;;;;5002389;28;20570;-81
2023/10/01 08:43:35;;;;;;;14.07;8.18;;;16.60;99.90;;;;;;5035549;28;20415;-82
2023/10/01 08:46:17;;;;;;;11.52;7.78;;;16.70;99.90;;;;;;5036556;28;20060;-80
2023/10/01 08:48:44;;;;;;;15.63;9.05;;;16.80;99.90;;;;;;5034976;28;20045;-81
2023/10/01 08:51:12;;;;;;;16.10;7.75;;;17.00;99.90;;;;;;5018354;28;20056;-79
2023/10/01 08:53:41;;;;;;;13.50;9.10;;;17.10;99.90;;;;;;5034604;28;20037;-81
2023/10/01 08:56:13;;;;;;;12.90;9.18;;;17.30;99.90;;;;;;5034290;28;20552;-81
2023/10/01 08:58:52;;;;;;;15.93;8.65;;;17.40;99.90;;;;;;5036356;28;20382;-82
2023/10/01 09:01:21;;;;;;;11.50;7.65;;;17.70;99.90;;;;;;5036273;28;20117;-83
2023/10/01 09:03:51;;;;;;;12.70;8.23;;;18.20;99.90;;;;;;5036789;28;20053;-75
2023/10/01 09:06:30;;;;;;;14.07;8.43;;;19.20;99.90;;;;;;5018370;28;20542;-77
2023/10/01 09:08:59;;;;;;;10.60;7.75;;;20.00;99.90;;;;;;5035865;28;20065;-75
2023/10/01 09:11:47;;;;;;;10.88;7.15;;;20.90;99.90;;;;;;5035194;28;20071;-78
2023/10/01 09:14:21;;;;;;;10.98;7.13;;;21.60;99.90;;;;;;5035055;28;20080;-80
2023/10/01 09:16:57;;;;;;;13.30;7.38;;;21.80;99.90;;;;;;5034022;28;20486;-80
2023/10/01 09:19:30;;;;;;;13.02;7.18;;;22.30;99.90;;;;;;5035388;28;20143;-81
2023/10/01 09:22:09;;;;;;;;;;;22.30;99.90;;;;;;5034612;28;20045;-81
2023/10/01 09:24:39;;;;;;;11.20;6.90;;;22.10;99.90;;;;;;5035003;28;19928;-79
2023/10/01 09:27:30;;;;;;;12.02;7.05;;;22.70;99.90;;;;;;5035199;28;20084;-80
2023/10/01 09:30:26;;;;;;;12.77;7.22;;;23.00;99.90;;;;;;5034957;28;20519;-80
2023/10/01 09:32:57;;;;;;;12.05;6.95;;;23.00;99.90;;;;;;5035257;28;20437;-81
2023/10/01 09:35:38;;;;;;;13.68;7.10;;;22.80;99.90;;;;;;5034891;28;20049;-81
2023/10/01 09:38:13;;;;;;;10.30;7.00;;;22.90;99.90;;;;;;5035228;28;20060;-71
2023/10/01 09:40:44;;;;;;;10.27;6.68;;;22.90;99.90;;;;;;5034923;28;20129;-71
2023/10/01 09:43:34;;;;;;;13.13;6.32;;;23.10;99.90;;;;;;5035129;28;20038;-71
2023/10/01 09:46:01;;;;;;;11.07;7.10;;;23.20;99.90;;;;;;5034439;28;20493;-72
2023/10/01 09:48:30;;;;;;;10.60;6.15;;;22.90;99.90;;;;;;5034670;28;20099;-71
2023/10/01 09:51:08;;;;;;;10.93;6.75;;;22.70;99.90;;;;;;5034500;28;20578;-71
2023/10/01 09:53:44;;;;;;;16.17;6.85;;;22.40;99.90;;;;;;5034810;28;20060;-71
2023/10/01 09:56:14;;;;;;;11.13;6.53;;;22.20;99.90;;;;;;5034428;28;20052;-79
2023/10/01 09:58:46;;;;;;;9.32;6.38;;;22.30;99.90;;;;;;5033701;28;20045;-76
2023/10/01 10:01:17;;;;;;;10.32;6.90;;;22.40;99.90;;;;;;5034566;28;20041;-81
2023/10/01 10:03:44;;;;;;;14.32;7.40;;;22.20;99.90;;;;;;5034683;28;20099;-83
2023/10/01 10:06:11;;;;;;;10.95;6.97;;;21.80;99.90;;;;;;5035020;28;20129;-79
2023/10/01 10:08:38;;;;;;;14.07;7.03;;;21.60;99.90;;;;;;5034540;28;20080;-80
2023/10/01 10:11:13;;;;;;;13.10;6.20;;;21.80;99.90;;;;;;5034712;28;20048;-86
2023/10/01 10:13:45;;;;;;;11.15;7.03;;;22.10;99.90;;;;;;5034396;28;20124;-84
2023/10/01 10:16:31;;;;;;;12.50;7.13;;;22.30;99.90;;;;;;5035065;28;20045;-84
2023/10/01 10:19:13;;;;;;;12.40;6.15;;;22.30;99.90;;;;;;5034890;28;20053;-86
2023/10/01 10:24:46;;;;;;;13.00;7.22;;;21.80;99.90;;;;;;5034459;28;20123;-81
2023/10/01 10:27:33;;;;;;;13.13;7.03;;;21.70;99.90;;;;;;5033610;28;20045;-86
2023/10/01 10:30:05;;;;;;;13.38;6.75;;;21.90;99.90;;;;;;5032705;28;20049;-79
2023/10/01 10:32:32;;;;;;;13.27;6.17;;;22.10;99.90;;;;;;5033978;28;20538;-81
2023/10/01 10:35:03;;;;;;;15.80;8.00;;;22.20;99.90;;;;;;5034561;28;20367;-81
2023/10/01 10:37:35;;;;;;;14.98;6.70;;;22.10;99.90;;;;;;5034068;28;20099;-84
2023/10/01 10:40:44;;;;;;;11.95;7.75;;;22.00;99.90;;;;;;5034024;28;20049;-81
2023/10/01 10:42:56;;;;;;;10.20;5.93;;;21.80;99.90;;;;;;5025763;28;20050;-83
2023/10/01 10:45:23;;;;;;;12.98;7.13;;;21.70;99.90;;;;;;5034223;28;20049;-84
2023/10/01 10:48:01;;;;;;;13.80;7.72;;;21.60;99.90;;;;;;5033899;28;20052;-79
2023/10/01 10:50:47;;;;;;;13.23;6.82;;;21.60;99.90;;;;;;5033889;28;20053;-88
2023/10/01 10:53:20;;;;;;;10.60;7.18;;;21.40;99.90;;;;;;5033767;28;20072;-83
2023/10/01 10:56:08;;;;;;;;;;;21.30;99.90;;;;;;5032828;28;20183;-79
2023/10/01 10:58:43;;;;;;;13.70;6.35;;;21.00;99.90;;;;;;5033236;28;20335;-80
2023/10/01 11:01:16;;;;;;;11.77;7.43;;;21.10;99.90;;;;;;5033385;28;20041;-83
2023/10/01 11:03:54;;;;;;;16.58;6.57;;;21.00;99.90;;;;;;5033959;28;20096;-83
2023/10/01 11:06:25;;;;;;;11.57;6.60;;;21.00;99.90;;;;;;5032155;28;20057;-80
2023/10/01 11:08:54;;;;;;;12.70;7.10;;;21.00;99.90;;;;;;5033197;28;20064;-82
2023/10/01 11:11:41;;;;;;;15.32;6.93;;;21.00;99.90;;;;;;5033640;28;20074;-79
2023/10/01 11:14:15;;;;;;;13.32;6.90;;;21.10;99.90;;;;;;5033242;28;20052;-82
2023/10/01 11:16:44;;;;;;;13.88;7.38;;;21.20;99.90;;;;;;5033068;28;20045;-83
2023/10/01 11:19:14;;;;;;;10.75;7.38;;;21.20;99.90;;;;;;5033240;28;20093;-82
2023/10/01 11:21:46;;;;;;;13.75;7.35;;;21.30;99.90;;;;;;5032356;28;20056;-82
2023/10/01 11:24:16;;;;;;;15.55;7.97;;;21.50;99.90;;;;;;5031994;28;20386;-85
2023/10/01 11:28:04;;;;;;;17.05;7.45;;;21.60;99.90;;;;;;5033042;28;20503;-84
2023/10/01 11:30:13;;;;;;;12.20;7.50;;;21.60;99.90;;;;;;5024861;28;20049;-82
2023/10/01 11:32:58;;;;;;;13.88;7.35;;;21.50;99.90;;;;;;5033027;28;20130;-82
2023/10/01 11:35:32;;;;;;;15.10;8.20;;;21.50;99.90;;;;;;5032912;28;20045;-82
2023/10/01 11:38:08;;;;;;;13.43;7.82;;;21.50;99.90;;;;;;5033431;28;20050;-82
2023/10/01 11:43:32;;;;;;;13.95;7.22;;;21.30;99.90;;;;;;5032722;28;20053;-81
2023/10/01 11:46:23;;;;;;;14.50;7.10;;;21.40;99.90;;;;;;5032917;28;20053;-82
2023/10/01 11:48:59;;;;;;;10.25;7.13;;;21.50;99.90;;;;;;5032007;28;20138;-83
2023/10/01 11:54:18;;;;;;;12.75;7.10;;;21.70;99.90;;;;;;5033239;28;20061;-84
2023/10/01 11:56:46;;;;;;;16.48;7.30;;;21.80;99.90;;;;;;5032059;28;20128;-82
2023/10/01 11:59:18;;;;;;;14.13;7.35;;;21.80;99.90;;;;;;5032668;28;20042;-80
2023/10/01 12:01:51;;;;;;;16.10;7.32;;;21.70;99.90;;;;;;5032595;28;20041;-83
2023/10/01 12:04:21;;;;;;;12.05;7.55;;;21.70;99.90;;;;;;5032610;28;20057;-83
2023/10/01 12:06:56;;;;;;;12.73;6.60;;;21.80;99.90;;;;;;5032715;28;20079;-81
2023/10/01 12:09:24;;;;;;;11.98;7.68;;;21.80;99.90;;;;;;5032566;28;20049;-82
2023/10/01 12:12:04;;;;;;;10.88;7.13;;;21.80;99.90;;;;;;5032248;28;20049;-82
2023/10/01 12:14:32;;;;;;;13.75;7.43;;;21.80;99.90;;;;;;5031461;28;20053;-82
2023/10/01 12:17:01;;;;;;;13.88;7.00;;;21.80;99.90;;;;;;5032388;28;20063;-80
2023/10/01 12:19:29;;;;;;;15.10;7.35;;;21.80;99.90;;;;;;5032421;28;20049;-82
2023/10/01 12:22:07;;;;;;;10.95;6.63;;;21.90;99.90;;;;;;5032939;28;20435;-81
2023/10/01 12:24:44;;;;;;;12.35;6.90;;;21.90;99.90;;;;;;5032316;28;20049;-82
2023/10/01 12:27:29;;;;;;;12.48;7.18;;;21.90;99.90;;;;;;5032704;28;20125;-83
2023/10/01 12:29:55;;;;;;;13.55;8.27;;;21.90;99.90;;;;;;5031716;28;20054;-80
2023/10/01 12:32:21;;;;;;;14.18;7.75;;;21.90;99.90;;;;;;5032153;28;20049;-84
2023/10/01 12:34:47;;;;;;;12.05;6.78;;;22.00;99.90;;;;;;5032601;28;20045;-77
2023/10/01 12:40:14;;;;;;;13.90;6.60;;;22.20;99.90;;;;;;5032515;28;20060;-82
2023/10/01 12:42:41;;;;;;;13.73;7.85;;;22.30;99.90;;;;;;5032441;28;20556;-83
2023/10/01 12:45:13;;;;;;;10.35;7.20;;;22.40;99.90;;;;;;5031556;28;20065;-81
2023/10/01 12:47:41;;;;;;;;;;;22.50;99.90;;;;;;5032528;28;20064;-77
2023/10/01 12:50:09;;;;;;;10.02;7.07;;;22.40;99.90;;;;;;5030903;28;19925;-78
2023/10/01 12:52:35;;;;;;;11.30;7.47;;;22.40;99.90;;;;;;5031672;28;20431;-81
2023/10/01 12:55:03;;;;;;;13.43;8.93;;;22.40;99.90;;;;;;5031965;28;20136;-81
2023/10/01 12:57:38;;;;;;;18.15;9.02;;;22.40;99.90;;;;;;5032027;28;20060;-83
2023/10/01 13:00:38;;;;;;;11.25;7.78;;;22.40;99.90;;;;;;5032019;28;20478;-82
2023/10/01 13:03:09;;;;;;;14.93;8.77;;;22.30;99.90;;;;;;5031013;28;20408;-80
2023/10/01 13:05:43;;;;;;;13.38;7.70;;;22.40;99.90;;;;;;5032086;28;20511;-82
2023/10/01 13:08:11;;;;;;;15.85;7.50;;;22.40;99.90;;;;;;5032529;28;20045;-85
2023/10/01 13:10:38;;;;;;;10.50;8.30;;;22.50;99.90;;;;;;5030870;28;20100;-83
2023/10/01 13:13:08;;;;;;;13.65;7.95;;;22.70;99.90;;;;;;5031807;28;20473;-83
2023/10/01 13:15:37;;;;;;;14.35;8.35;;;22.70;99.90;;;;;;5031996;28;20517;-80
2023/10/01 13:18:12;;;;;;;12.98;8.18;;;22.80;99.90;;;;;;5031814;28;20443;-81
2023/10/01 13:23:24;;;;;;;12.52;8.10;;;22.90;99.90;;;;;;5035882;28;20155;-81
2023/10/01 13:26:05;;;;;;;17.83;8.65;;;22.90;99.90;;;;;;5035793;28;20056;-82
2023/10/01 13:28:49;;;;;;;10.40;7.55;;;22.90;99.90;;;;;;5035507;28;20068;-81
2023/10/01 14:09:47;;;;;;;12.50;7.78;;;22.90;99.90;;;;;;5034486;28;20150;-84
2023/10/01 14:15:20;;;;;;;12.60;8.57;;;23.00;99.90;;;;;;5034854;28;20053;-83
2023/10/01 14:17:52;;;;;;;11.90;7.93;;;23.00;99.90;;;;;;5033688;28;20054;-83
2023/10/01 14:23:07;;;;;;;15.15;8.00;;;23.00;99.90;;;;;;5034233;28;20080;-83
2023/10/01 14:28:25;;;;;;;14.77;8.30;;;22.80;99.90;;;;;;5034050;28;20625;-79
2023/10/01 14:30:58;;;;;;;16.13;8.60;;;22.70;99.90;;;;;;5034029;28;20052;-84
2023/10/01 14:33:27;;;;;;;13.65;8.00;;;22.70;99.90;;;;;;5033890;28;20077;-83